sensor_id;sensor_type;location;lat;lon;timestamp;pressure;altitude;pressure_sealevel;temperature;humidity
48800;BME280;34611;47.964;7.982;2023-02-14T00:00:46;98483.78;;;9.42;55.74
48800;BME280;34611;47.964;7.982;2023-02-14T00:07:47;98479.44;;;9.43;55.83
48800;BME280;34611;47.964;7.982;2023-02-14T00:14:47;98475.94;;;9.44;56.00
48800;BME280;34611;47.964;7.982;2023-02-14T00:22:07;98475.06;;;9.43;55.90
48800;BME280;34611;47.964;7.982;2023-02-14T00:29:12;98478.53;;;9.44;55.74
48800;BME280;34611;47.964;7.982;2023-02-14T00:36:13;98467.28;;;9.43;55.97
48800;BME280;34611;47.964;7.982;2023-02-14T00:43:13;98460.34;;;9.44;56.04
48800;BME280;34611;47.964;7.982;2023-02-14T00:50:13;98455.16;;;9.44;56.06
48800;BME280;34611;47.964;7.982;2023-02-14T00:57:13;98454.31;;;9.43;55.98
48800;BME280;34611;47.964;7.982;2023-02-14T01:04:14;98457.00;;;9.42;56.06
48800;BME280;34611;47.964;7.982;2023-02-14T01:11:16;98457.66;;;9.45;55.98
48800;BME280;34611;47.964;7.982;2023-02-14T01:18:16;98457.75;;;9.44;56.02
48800;BME280;34611;47.964;7.982;2023-02-14T01:25:17;98450.03;;;9.42;56.08
48800;BME280;34611;47.964;7.982;2023-02-14T01:32:17;98453.47;;;9.43;56.21
48800;BME280;34611;47.964;7.982;2023-02-14T01:39:17;98447.38;;;9.44;55.99
48800;BME280;34611;47.964;7.982;2023-02-14T01:46:18;98453.31;;;9.46;56.00
48800;BME280;34611;47.964;7.982;2023-02-14T01:53:20;98446.50;;;9.43;56.16
48800;BME280;34611;47.964;7.982;2023-02-14T02:00:23;98445.69;;;9.43;56.18
48800;BME280;34611;47.964;7.982;2023-02-14T02:07:42;98442.25;;;9.42;56.17
48800;BME280;34611;47.964;7.982;2023-02-14T02:14:43;98444.78;;;9.44;56.16
48800;BME280;34611;47.964;7.982;2023-02-14T02:21:48;98441.31;;;9.43;56.22
48800;BME280;34611;47.964;7.982;2023-02-14T02:37:05;98414.63;;;9.41;56.20
48800;BME280;34611;47.964;7.982;2023-02-14T02:50:39;98398.97;;;9.43;56.20
48800;BME280;34611;47.964;7.982;2023-02-14T02:58:00;98394.72;;;9.42;56.36
48800;BME280;34611;47.964;7.982;2023-02-14T03:05:01;98403.31;;;9.42;56.23
48800;BME280;34611;47.964;7.982;2023-02-14T03:12:06;98404.16;;;9.43;56.33
48800;BME280;34611;47.964;7.982;2023-02-14T03:26:50;98403.31;;;9.42;56.44
48800;BME280;34611;47.964;7.982;2023-02-14T03:40:58;98388.59;;;9.43;56.26
48800;BME280;34611;47.964;7.982;2023-02-14T03:48:02;98388.66;;;9.41;56.39
48800;BME280;34611;47.964;7.982;2023-02-14T03:55:04;98390.28;;;9.44;56.29
48800;BME280;34611;47.964;7.982;2023-02-14T04:02:07;98393.78;;;9.43;56.27
48800;BME280;34611;47.964;7.982;2023-02-14T04:09:09;98398.97;;;9.43;56.50
48800;BME280;34611;47.964;7.982;2023-02-14T04:16:09;98398.97;;;9.43;56.35
48800;BME280;34611;47.964;7.982;2023-02-14T04:23:09;98405.91;;;9.42;56.52
48800;BME280;34611;47.964;7.982;2023-02-14T04:30:10;98405.09;;;9.42;56.50
48800;BME280;34611;47.964;7.982;2023-02-14T04:37:12;98404.22;;;9.41;56.56
48800;BME280;34611;47.964;7.982;2023-02-14T04:44:12;98407.59;;;9.43;56.33
48800;BME280;34611;47.964;7.982;2023-02-14T04:51:12;98405.09;;;9.42;56.47
48800;BME280;34611;47.964;7.982;2023-02-14T04:58:13;98414.53;;;9.43;56.58
48800;BME280;34611;47.964;7.982;2023-02-14T05:05:13;98404.16;;;9.43;56.61
48800;BME280;34611;47.964;7.982;2023-02-14T05:12:14;98403.31;;;9.42;56.46
48800;BME280;34611;47.964;7.982;2023-02-14T05:19:15;98404.22;;;9.41;56.67
48800;BME280;34611;47.964;7.982;2023-02-14T05:26:15;98405.91;;;9.42;56.50
48800;BME280;34611;47.964;7.982;2023-02-14T05:33:15;98404.22;;;9.41;56.49
48800;BME280;34611;47.964;7.982;2023-02-14T05:40:15;98399.03;;;9.41;56.69
48800;BME280;34611;47.964;7.982;2023-02-14T05:47:16;98407.69;;;9.42;56.69
48800;BME280;34611;47.964;7.982;2023-02-14T05:54:16;98402.50;;;9.42;56.52
48800;BME280;34611;47.964;7.982;2023-02-14T06:01:16;98411.94;;;9.43;56.56
48800;BME280;34611;47.964;7.982;2023-02-14T06:08:16;98422.31;;;9.43;56.55
48800;BME280;34611;47.964;7.982;2023-02-14T06:15:17;98429.22;;;9.44;56.77
48800;BME280;34611;47.964;7.982;2023-02-14T06:22:17;98427.59;;;9.41;56.54
48800;BME280;34611;47.964;7.982;2023-02-14T06:29:17;98427.50;;;9.43;56.57
48800;BME280;34611;47.964;7.982;2023-02-14T06:36:18;98437.13;;;9.41;56.61
48800;BME280;34611;47.964;7.982;2023-02-14T06:43:18;98432.72;;;9.43;56.45
48800;BME280;34611;47.964;7.982;2023-02-14T06:50:18;98446.63;;;9.42;56.71
48800;BME280;34611;47.964;7.982;2023-02-14T06:57:19;98445.53;;;9.46;56.79
48800;BME280;34611;47.964;7.982;2023-02-14T07:04:19;98437.06;;;9.42;56.69
48800;BME280;34611;47.964;7.982;2023-02-14T07:11:19;98440.56;;;9.41;56.69
48800;BME280;34611;47.964;7.982;2023-02-14T07:18:19;98443.00;;;9.60;56.28
48800;BME280;34611;47.964;7.982;2023-02-14T07:25:20;98442.75;;;9.49;58.05
48800;BME280;34611;47.964;7.982;2023-02-14T07:32:20;98435.91;;;9.48;57.55
48800;BME280;34611;47.964;7.982;2023-02-14T07:39:22;98433.31;;;9.48;57.11
48800;BME280;34611;47.964;7.982;2023-02-14T07:46:22;98428.19;;;9.46;57.11
48800;BME280;34611;47.964;7.982;2023-02-14T07:53:23;98427.38;;;9.46;56.94
48800;BME280;34611;47.964;7.982;2023-02-14T08:00:23;98429.97;;;9.46;56.92
48800;BME280;34611;47.964;7.982;2023-02-14T08:07:23;98434.41;;;9.44;56.68
48800;BME280;34611;47.964;7.982;2023-02-14T08:14:24;98431.03;;;9.42;56.67
48800;BME280;34611;47.964;7.982;2023-02-14T08:21:24;98429.22;;;9.44;56.58
48800;BME280;34611;47.964;7.982;2023-02-14T08:28:24;98430.09;;;9.43;56.77
48800;BME280;34611;47.964;7.982;2023-02-14T08:35:24;98426.69;;;9.42;56.69
48800;BME280;34611;47.964;7.982;2023-02-14T08:42:25;98430.09;;;9.43;56.44
48800;BME280;34611;47.964;7.982;2023-02-14T08:49:25;98412.00;;;9.41;56.57
48800;BME280;34611;47.964;7.982;2023-02-14T08:56:25;98420.66;;;9.42;56.58
48800;BME280;34611;47.964;7.982;2023-02-14T09:03:26;98411.19;;;9.41;56.50
48800;BME280;34611;47.964;7.982;2023-02-14T09:10:26;98412.94;;;9.40;56.57
48800;BME280;34611;47.964;7.982;2023-02-14T09:17:27;98407.69;;;9.42;56.43
48800;BME280;34611;47.964;7.982;2023-02-14T09:24:29;98403.41;;;9.41;56.57
48800;BME280;34611;47.964;7.982;2023-02-14T09:31:29;98410.28;;;9.42;56.41
48800;BME280;34611;47.964;7.982;2023-02-14T09:38:30;98404.41;;;9.38;56.61
48800;BME280;34611;47.964;7.982;2023-02-14T09:45:31;98411.19;;;9.41;56.32
48800;BME280;34611;47.964;7.982;2023-02-14T09:52:32;98409.53;;;9.40;56.44
48800;BME280;34611;47.964;7.982;2023-02-14T09:59:44;98411.19;;;9.41;56.44
48800;BME280;34611;47.964;7.982;2023-02-14T10:20:48;98398.28;;;9.39;56.37
48800;BME280;34611;47.964;7.982;2023-02-14T10:27:50;98387.06;;;9.39;56.52
48800;BME280;34611;47.964;7.982;2023-02-14T10:34:52;98397.47;;;9.39;56.44
48800;BME280;34611;47.964;7.982;2023-02-14T10:41:57;98392.25;;;9.39;56.39
48800;BME280;34611;47.964;7.982;2023-02-14T10:49:24;98380.47;;;9.49;57.94
48800;BME280;34611;47.964;7.982;2023-02-14T10:56:27;98357.78;;;9.99;52.65
48800;BME280;34611;47.964;7.982;2023-02-14T11:03:31;98348.53;;;10.09;51.32
48800;BME280;34611;47.964;7.982;2023-02-14T11:10:33;98344.19;;;9.63;55.22
48800;BME280;34611;47.964;7.982;2023-02-14T11:17:35;98333.41;;;10.16;51.36
48800;BME280;34611;47.964;7.982;2023-02-14T11:24:37;98332.13;;;10.23;50.61
48800;BME280;34611;47.964;7.982;2023-02-14T11:31:38;98319.13;;;10.23;50.20
48800;BME280;34611;47.964;7.982;2023-02-14T11:38:39;98312.84;;;9.66;52.53
48800;BME280;34611;47.964;7.982;2023-02-14T11:45:41;98310.59;;;9.60;53.46
48800;BME280;34611;47.964;7.982;2023-02-14T11:52:47;98296.03;;;9.58;53.74
48800;BME280;34611;47.964;7.982;2023-02-14T11:59:50;98289.25;;;9.55;54.03
48800;BME280;34611;47.964;7.982;2023-02-14T12:06:52;98280.81;;;9.51;55.11
48800;BME280;34611;47.964;7.982;2023-02-14T12:13:56;98273.69;;;10.00;53.84
48800;BME280;34611;47.964;7.982;2023-02-14T12:20:59;98262.88;;;10.22;51.04
48800;BME280;34611;47.964;7.982;2023-02-14T12:28:05;98265.91;;;10.30;49.89
48800;BME280;34611;47.964;7.982;2023-02-14T12:35:33;98257.06;;;10.32;49.64
48800;BME280;34611;47.964;7.982;2023-02-14T12:57:00;98236.75;;;10.39;49.09
48800;BME280;34611;47.964;7.982;2023-02-14T13:04:19;98232.72;;;10.05;50.43
48800;BME280;34611;47.964;7.982;2023-02-14T13:11:36;98224.22;;;10.31;50.82
48800;BME280;34611;47.964;7.982;2023-02-14T13:18:47;98214.81;;;10.43;49.04
48800;BME280;34611;47.964;7.982;2023-02-14T13:26:32;98196.63;;;10.43;48.45
48800;BME280;34611;47.964;7.982;2023-02-14T13:40:32;98190.59;;;10.43;49.55
48800;BME280;34611;47.964;7.982;2023-02-14T13:47:33;98184.94;;;10.50;48.41
48800;BME280;34611;47.964;7.982;2023-02-14T13:54:35;98179.63;;;10.52;48.02
48800;BME280;34611;47.964;7.982;2023-02-14T14:16:08;98173.28;;;10.56;47.89
48800;BME280;34611;47.964;7.982;2023-02-14T14:23:01;98165.16;;;9.90;50.65
48800;BME280;34611;47.964;7.982;2023-02-14T14:30:02;98168.31;;;9.81;51.54
48800;BME280;34611;47.964;7.982;2023-02-14T14:37:04;98159.03;;;9.77;51.89
48800;BME280;34611;47.964;7.982;2023-02-14T14:44:05;98164.31;;;9.76;52.20
48800;BME280;34611;47.964;7.982;2023-02-14T14:51:06;98163.56;;;9.73;52.21
48800;BME280;34611;47.964;7.982;2023-02-14T14:58:28;98166.34;;;9.70;52.51
48800;BME280;34611;47.964;7.982;2023-02-14T15:12:29;98155.13;;;9.70;52.60
48800;BME280;34611;47.964;7.982;2023-02-14T15:19:55;98152.63;;;9.68;52.75
48800;BME280;34611;47.964;7.982;2023-02-14T15:26:57;98154.47;;;9.66;52.88
48800;BME280;34611;47.964;7.982;2023-02-14T15:33:57;98150.97;;;9.67;52.96
48800;BME280;34611;47.964;7.982;2023-02-14T15:40:59;98152.81;;;9.65;52.96
48800;BME280;34611;47.964;7.982;2023-02-14T15:48:01;98156.22;;;9.66;52.95
48800;BME280;34611;47.964;7.982;2023-02-14T15:55:02;98151.97;;;9.65;53.01
48800;BME280;34611;47.964;7.982;2023-02-14T16:09:23;98159.94;;;9.62;53.29
48800;BME280;34611;47.964;7.982;2023-02-14T16:16:24;98161.63;;;9.63;53.43
48800;BME280;34611;47.964;7.982;2023-02-14T16:23:25;98166.91;;;9.61;53.45
48800;BME280;34611;47.964;7.982;2023-02-14T16:30:26;98170.41;;;9.60;53.39
48800;BME280;34611;47.964;7.982;2023-02-14T16:37:28;98172.09;;;9.61;53.50
48800;BME280;34611;47.964;7.982;2023-02-14T16:44:29;98165.22;;;9.60;53.62
48800;BME280;34611;47.964;7.982;2023-02-14T16:51:33;98168.75;;;9.59;53.72
48800;BME280;34611;47.964;7.982;2023-02-14T16:58:34;98174.75;;;9.60;53.58
48800;BME280;34611;47.964;7.982;2023-02-14T17:05:35;98182.63;;;9.58;53.78
48800;BME280;34611;47.964;7.982;2023-02-14T17:12:36;98174.09;;;9.56;53.88
48800;BME280;34611;47.964;7.982;2023-02-14T17:19:39;98174.97;;;9.57;53.89
48800;BME280;34611;47.964;7.982;2023-02-14T17:26:40;98191.38;;;9.57;53.74
48800;BME280;34611;47.964;7.982;2023-02-14T17:33:40;98182.75;;;9.57;53.83
48800;BME280;34611;47.964;7.982;2023-02-14T17:40:40;98181.06;;;9.56;53.79
48800;BME280;34611;47.964;7.982;2023-02-14T17:47:40;98175.78;;;9.57;53.80
48800;BME280;34611;47.964;7.982;2023-02-14T17:54:42;98178.53;;;9.54;54.04
48800;BME280;34611;47.964;7.982;2023-02-14T18:01:43;98170.75;;;9.54;54.04
48800;BME280;34611;47.964;7.982;2023-02-14T18:08:44;98177.63;;;9.55;53.79
48800;BME280;34611;47.964;7.982;2023-02-14T18:15:45;98168.16;;;9.54;54.06
48800;BME280;34611;47.964;7.982;2023-02-14T18:22:46;98154.28;;;9.55;54.13
48800;BME280;34611;47.964;7.982;2023-02-14T18:29:46;98146.66;;;9.52;54.03
48800;BME280;34611;47.964;7.982;2023-02-14T18:36:46;98143.97;;;9.53;54.19
48800;BME280;34611;47.964;7.982;2023-02-14T18:43:47;98143.97;;;9.53;54.19
48800;BME280;34611;47.964;7.982;2023-02-14T18:50:48;98141.47;;;9.52;54.06
48800;BME280;34611;47.964;7.982;2023-02-14T18:57:48;98148.34;;;9.53;54.18
48800;BME280;34611;47.964;7.982;2023-02-14T19:04:48;98141.38;;;9.53;54.17
48800;BME280;34611;47.964;7.982;2023-02-14T19:11:49;98133.59;;;9.53;54.28
48800;BME280;34611;47.964;7.982;2023-02-14T19:18:49;98131.06;;;9.52;54.19
48800;BME280;34611;47.964;7.982;2023-02-14T19:25:52;98120.69;;;9.52;54.29
48800;BME280;34611;47.964;7.982;2023-02-14T19:32:52;98118.09;;;9.52;54.30
48800;BME280;34611;47.964;7.982;2023-02-14T19:39:52;98117.19;;;9.53;54.13
48800;BME280;34611;47.964;7.982;2023-02-14T19:46:54;98109.47;;;9.51;54.39
48800;BME280;34611;47.964;7.982;2023-02-14T19:53:56;98098.28;;;9.51;54.38
48800;BME280;34611;47.964;7.982;2023-02-14T20:00:56;98097.44;;;9.50;54.52
48800;BME280;34611;47.964;7.982;2023-02-14T20:07:57;98095.69;;;9.51;54.19
48800;BME280;34611;47.964;7.982;2023-02-14T20:14:58;98097.34;;;9.52;54.38
48800;BME280;34611;47.964;7.982;2023-02-14T20:21:58;98092.34;;;9.49;54.37
48800;BME280;34611;47.964;7.982;2023-02-14T20:28:59;98097.44;;;9.50;54.21
48800;BME280;34611;47.964;7.982;2023-02-14T20:36:02;98086.25;;;9.50;54.51
48800;BME280;34611;47.964;7.982;2023-02-14T20:43:04;98070.66;;;9.50;54.30
48800;BME280;34611;47.964;7.982;2023-02-14T20:50:04;98071.50;;;9.50;54.42
48800;BME280;34611;47.964;7.982;2023-02-14T20:57:05;98053.41;;;9.49;54.54
48800;BME280;34611;47.964;7.982;2023-02-14T21:04:05;98053.41;;;9.49;54.31
48800;BME280;34611;47.964;7.982;2023-02-14T21:11:06;98050.72;;;9.50;54.44
48800;BME280;34611;47.964;7.982;2023-02-14T21:18:06;98051.63;;;9.49;54.55
48800;BME280;34611;47.964;7.982;2023-02-14T21:25:06;98053.41;;;9.49;54.46
48800;BME280;34611;47.964;7.982;2023-02-14T21:32:07;98044.72;;;9.50;54.38
48800;BME280;34611;47.964;7.982;2023-02-14T21:39:07;98052.56;;;9.48;54.46
48800;BME280;34611;47.964;7.982;2023-02-14T21:46:11;98056.00;;;9.49;54.47
48800;BME280;34611;47.964;7.982;2023-02-14T21:53:12;98055.09;;;9.50;54.36
48800;BME280;34611;47.964;7.982;2023-02-14T22:00:12;98049.16;;;9.48;54.39
48800;BME280;34611;47.964;7.982;2023-02-14T22:07:13;98048.22;;;9.49;54.64
48800;BME280;34611;47.964;7.982;2023-02-14T22:14:13;98055.16;;;9.48;54.65
48800;BME280;34611;47.964;7.982;2023-02-14T22:21:15;98059.41;;;9.49;54.45
48800;BME280;34611;47.964;7.982;2023-02-14T22:28:16;98037.09;;;9.47;54.64
48800;BME280;34611;47.964;7.982;2023-02-14T22:35:16;98026.72;;;9.47;54.70
48800;BME280;34611;47.964;7.982;2023-02-14T22:42:16;98027.53;;;9.47;54.48
48800;BME280;34611;47.964;7.982;2023-02-14T22:49:16;98018.09;;;9.46;54.51
48800;BME280;34611;47.964;7.982;2023-02-14T22:56:21;98018.91;;;9.47;54.62
48800;BME280;34611;47.964;7.982;2023-02-14T23:03:22;98012.81;;;9.48;54.52
48800;BME280;34611;47.964;7.982;2023-02-14T23:10:22;98011.13;;;9.47;54.63
48800;BME280;34611;47.964;7.982;2023-02-14T23:17:22;98010.22;;;9.48;54.57
48800;BME280;34611;47.964;7.982;2023-02-14T23:24:41;98007.72;;;9.46;54.60
48800;BME280;34611;47.964;7.982;2023-02-14T23:31:41;97999.94;;;9.46;54.77
48800;BME280;34611;47.964;7.982;2023-02-14T23:38:42;98001.69;;;9.46;54.57
48800;BME280;34611;47.964;7.982;2023-02-14T23:45:42;98003.44;;;9.45;54.78
48800;BME280;34611;47.964;7.982;2023-02-14T23:52:43;97999.19;;;9.44;54.61
48800;BME280;34611;47.964;7.982;2023-02-14T23:59:44;98003.44;;;9.45;54.76
